ADDS METAR Data INFO
IDs: Format: Raw Decoded Include TAF

Data at: 2249 UTC 16 Jan 2018

PAMO 162201Z AUTO 34004KT 10SM CLR M02/M03 A2947 RMK AO2 SLP986 T10221033 FZRANO
PAMO 162101Z AUTO 05008KT 10SM CLR M02/M03 A2948 RMK AO2 SLP989 T10221033 53004 FZRANO
PAMO 162001Z AUTO 06011KT 10SM CLR M03/M03 A2948 RMK AO2 SLP990 T10281033 FZRANO
PAMO 161901Z AUTO 05011KT 10SM CLR M03/M03 A2947 RMK AO2 SLP987 T10281033 FZRANO
PAMO 161801Z AUTO 06013KT 10SM FEW012 BKN035 M03/M03 A2947 RMK AO2 SLP985 T10281033 11006 21028 53005 FZRANO
PAMO 161733Z AUTO 06011KT 10SM SCT011 M02/M03 A2946 RMK AO2 FZRANO
PAMO 161701Z AUTO 06008KT 10SM OVC011 M03/M03 A2947 RMK AO2 SLP986 T10281033 FZRANO
PAMO 161649Z AUTO 07010KT 10SM OVC011 M03/M03 A2947 RMK AO2 FZRANO
PAMO 161618Z AUTO 07010KT 10SM BKN009 BKN015 M03/M04 A2947 RMK AO2 FZRANO
PAMO 161601Z AUTO 09007KT 10SM FEW009 M02/M03 A2946 RMK AO2 SLP982 T10221028 FZRANO
PAMO 161548Z AUTO 11007KT 10SM FEW009 M02/M03 A2946 RMK AO2 FZRANO
PAMO 161501Z AUTO 11007KT 10SM FEW050 M02/M02 A2945 RMK AO2 SLP979 T10221022 50003 FZRANO
PAMO 161401Z AUTO 11007KT 10SM OVC049 M02/M02 A2946 RMK AO2 SLP981 T10171022 FZRANO
PAMO 161301Z AUTO 12008KT 10SM OVC043 M01/M02 A2946 RMK AO2 SLP981 T10111017 FZRANO
PAMO 161201Z AUTO 12009KT 10SM OVC041 M01/M01 A2945 RMK AO2 SLP979 60000 70003 T10061011 10006 21006 50008 FZRANO
PAMO 161101Z AUTO 13011KT 10SM SCT021 OVC039 M01/M01 A2945 RMK AO2 FZRANO
PAMO 161001Z AUTO 13009KT 10SM OVC020 M01/M01 A2945 RMK AO2 SLP978 T10061011 FZRANO
PAMO 160901Z AUTO 14012KT 10SM FEW019 OVC026 00/M01 A2944 RMK AO2 SLP974 60000 T00001011 51013 FZRANO
PAMO 160801Z AUTO 14015KT 10SM BKN019 BKN026 OVC046 00/M01 A2942 RMK AO2 SLP969 T00001006 400000000 FZRANO
PAMO 160758Z AUTO 14015KT 10SM SCT019 BKN026 OVC046 00/M01 A2942 RMK AO2 400060000 FZRANO
PAMO 160725Z AUTO 14014KT 10SM OVC032 00/M01 A2941 RMK AO2 FZRANO
PAMO 160701Z AUTO 14015KT 10SM OVC026 01/M01 A2940 RMK AO2 SLP963 T00061006 FZRANO
PAMO 160601Z AUTO 14017KT 10SM OVC019 01/00 A2938 RMK AO2 SNE0512 SLP956 P0000 60000 T00060000 10006 20000 53008 FZRANO
PAMO 160523Z AUTO 14018KT 10SM SCT008 OVC015 00/00 A2937 RMK AO2 SNE12 P0000 FZRANO
PAMO 160501Z AUTO 14017KT 4SM -SN BR OVC008 00/00 A2936 RMK AO2 UPB0446E0448SNB0448 SLP950 P0000 T00000000 FZRANO
PAMO 160401Z AUTO 14016KT 10SM OVC006 00/00 A2935 RMK AO2 UPB03020301E0343 CIG 003V009 SLP945 P0000 T00000000 FZRANO
PAMO 160349Z AUTO 14015KT 10SM SCT002 OVC006 00/00 A2934 RMK AO2 UPB0201E43 P0000 FZRANO
PAMO 160341Z AUTO 14016KT 5SM UP BR BKN002 OVC006 00/00 A2934 RMK AO2 UPB0201 CIG 002V005 P0000 FZRANO
PAMO 160332Z AUTO 14014KT 1 1/2SM UP BR OVC002 00/00 A2934 RMK AO2 VIS 1V2 1/2 UPB0201 P0000 FZRANO
PAMO 160310Z AUTO 14015KT 5SM UP BR OVC002 00/00 A2933 RMK AO2 UPB0201 P0000 FZRANO
PAMO 160301Z AUTO 14013KT 1/2SM UP FG OVC002 00/00 A2933 RMK AO2 UPB0201 P0000 FZRANO
PAMO 160219Z AUTO 14014KT 1/4SM UP FG OVC002 00/00 A2932 RMK AO2 UPB01 P0000 FZRANO
PAMO 160208Z AUTO 15014KT 1/2SM UP FG OVC002 00/00 A2932 RMK AO2 UPB01 P0000 FZRANO
PAMO 160201Z AUTO 15014KT 3/4SM UP BR OVC002 00/00 A2931 RMK AO2 UPB01 P0000 FZRANO
PAMO 160158Z AUTO 15015KT 3/4SM BR OVC004 00/00 A2931 RMK AO2 FZRANO
PAMO 160154Z AUTO 15013KT 1 1/2SM BR OVC004 00/00 A2931 RMK AO2 FZRANO
PAMO 160142Z AUTO 15019KT 8SM OVC004 01/00 A2930 RMK AO2 CIG 003V006 FZRANO
PAMO 160101Z AUTO 16022G30KT 8SM OVC006 01/00 A2928 RMK AO2 PK WND 16030/0052 SLP922 T00060000 FZRANO
PAMO 160014Z AUTO 14018KT 10SM OVC008 01/01 A2927 RMK AO2 CIG 005V011 FZRANO
PAMO 160001Z AUTO 14018KT 10SM OVC010 01/01 A2927 RMK AO2 PK WND 15026/2202 CIG 007V013 SLP916 60000 T00060006 10006 20000 53011 FZRANO
PAMO 152350Z AUTO 15018KT 10SM BKN010 OVC015 01/01 A2926 RMK AO2 PK WND 15026/2202 CIG 007V013 FZRANO
PAMO 152301Z AUTO 15020KT 10SM SCT007 OVC017 00/00 A2925 RMK AO2 PK WND 15026/2202 FZRANO
PAMO 152236Z AUTO 15020KT 10SM BKN008 OVC015 00/00 A2924 RMK AO2 PK WND 15026/2202 CIG 004V010 FZRANO
PAMO 152228Z AUTO 15020G24KT 10SM SCT008 OVC015 00/00 A2924 RMK AO2 PK WND 15026/2202 FZRANO
PAMO 152221Z AUTO 15019KT 10SM BKN010 OVC015 00/00 A2924 RMK AO2 PK WND 15026/2202 CIG 007V013 FZRANO
PAMO 152201Z AUTO 15021G26KT 10SM BKN006 OVC013 00/00 A2923 RMK AO2 PK WND 15026/2159 UPE2105B2155E2159SNB2105E2155 CIG 003V011 SLP905 P0000 T00000000 FZRANO
PAMO 152143Z AUTO 15019KT 3SM -SN BR OVC004 00/00 A2923 RMK AO2 UPE05SNB05 CIG 003V007 P0000 FZRANO
PAMO 152135Z AUTO 15018KT 1 1/4SM -SN BR OVC004 00/00 A2922 RMK AO2 UPE05SNB05 P0000 FZRANO
PAMO 152132Z AUTO 15018KT 3/4SM -SN BR OVC004 00/00 A2922 RMK AO2 UPE05SNB05 P0000 FZRANO
PAMO 152101Z AUTO 15017KT 1/4SM UP FG OVC004 00/00 A2921 RMK AO2 UPB2045SNE2045 SLP896 P0000 60000 T00000000 52034 FZRANO
PAMO 152001Z AUTO 15017KT 1/4SM -SN FG OVC004 00/00 A2918 RMK AO2 SLP886 P0000 T00000000 FZRANO
PAMO 151936Z AUTO 15016KT 1/4SM -SN FG OVC004 00/00 A2917 RMK AO2 P0000 FZRANO
PAMO 151901Z AUTO 15016KT 1/2SM -SN FG OVC004 00/00 A2914 RMK AO2 UPB1803E1836SNE1803B1836 SLP875 P0000 T00000000 FZRANO
PAMO 151813Z AUTO 15018KT 1/2SM UP FG OVC004 00/00 A2912 RMK AO2 UPB03SNE03 P0000 FZRANO
PAMO 151801Z AUTO 15017KT 1/4SM -SN FG OVC004 00/00 A2911 RMK AO2 UPE1747SNB1747 SLP863 P0000 60001 T00000000 10000 20000 53023 FZRANO
PAMO 151735Z AUTO 14016KT 1/4SM FG OVC004 00/00 A2909 RMK AO2 UPE26 P0000 FZRANO
PAMO 151701Z AUTO 15018KT 1/2SM UP FG OVC004 00/00 A2907 RMK AO2 UPB1603 SLP852 P0000 T00000000 FZRANO
PAMO 151610Z AUTO 15019G25KT 1/2SM UP FG OVC004 00/00 A2905 RMK AO2 UPB03 P0000 FZRANO
PAMO 151559Z AUTO 15020G27KT 3/4SM BR OVC004 00/00 A2904 RMK AO2 PK WND 15027/1556 UPE30B46E56 SLP839 P0000 T00000000 FZRANO
PAMO 151558Z AUTO 15019G27KT 3/4SM BR OVC004 00/00 A2904 RMK AO2 PK WND 15027/1556 UPE30B46E56 P0000 FZRANO
PAMO 151546Z AUTO 15022KT 1 3/4SM UP BR OVC004 00/00 A2903 RMK AO2 PK WND 15027/1527 UPE30B46 P0000 FZRANO
PAMO 151537Z AUTO 15020KT 4SM BR OVC004 00/00 A2903 RMK AO2 PK WND 15027/1527 UPE30 P0000 FZRANO
PAMO 151528Z AUTO 15022KT 2SM UP BR OVC004 00/00 A2903 RMK AO2 PK WND 15027/1527 VIS 1 1/4V5 P0000 FZRANO
PAMO 151501Z AUTO 15020KT 1SM UP BR OVC004 00/00 A2902 RMK AO2 PK WND 15030/1321 UPB14131420SNE14131420 SLP832 P0000 60001 T00000000 51014 FZRANO
PAMO 151451Z AUTO 15022KT 1SM UP BR OVC004 00/00 A2901 RMK AO2 PK WND 15030/1321 UPB1320SNE1320 P0000 FZRANO
PAMO 151441Z AUTO 15022KT 3/4SM UP BR OVC004 00/00 A2901 RMK AO2 PK WND 15030/1321 UPB1320SNE1320 P0000 FZRANO
PAMO 151401Z AUTO 14023G29KT 1/2SM UP FG OVC004 00/00 A2899 RMK AO2 PK WND 15030/1321 UPB1320SNE1320 P0000 FZRANO
PAMO 151339Z AUTO 15023KT 3/4SM BR OVC004 00/00 A2898 RMK AO2 PK WND 15030/1321 UPB20E33SNE20 P0000 FZRANO
PAMO 151313Z AUTO 14022G30KT 1SM -SN BR OVC004 00/00 A2897 RMK AO2 PK WND 14030/1307 P0000 FZRANO
PAMO 151301Z AUTO 14023G28KT 3/4SM -SN BR OVC004 00/00 A2897 RMK AO2 PK WND 14035/1123 RAB12111209E12111243UPB12111243E1253SNE12111209B1211E1223B125 3 SLP815 P0000 T00000000 FZRANO
PAMO 151250Z AUTO 14024G29KT 3/4SM UP BR OVC004 00/00 A2896 RMK AO2 PK WND 14035/1123 RAB1109E1143UPB1143SNE1109B11E23 P0000 FZRANO
PAMO 151229Z AUTO 14024G29KT 1/2SM UP FG OVC004 00/00 A2896 RMK AO2 PK WND 14035/1123 RAB1109E1143UPB1143SNE1109B11E23 P0000 FZRANO
PAMO 151219Z AUTO 14024G31KT 3/4SM -SN BR OVC004 00/00 A2895 RMK AO2 PK WND 14035/1123 RAB1109E1143UPB1143E11SNE1109B11 P0000 FZRANO
PAMO 151201Z AUTO 14023G31KT 1 1/4SM UP BR OVC004 00/00 A2894 RMK AO2 PK WND 14035/1123 RAB1109E1143UPB1143SNE1109 P0000 FZRANO
PAMO 151139Z AUTO 14026G32KT 1 3/4SM -RA BR OVC004 00/00 A2893 RMK AO2 PK WND 14035/1123 RAB09SNE09 P0000 FZRANO
PAMO 151117Z AUTO 14027G35KT 6SM -RA BR OVC004 01/01 A2892 RMK AO2 PK WND 13035/1115 RAB09SNE09 P0000 FZRANO
PAMO 151101Z AUTO 14027G36KT 2 1/2SM -SN BR OVC004 01/01 A2891 RMK AO2 PK WND 13038/1010 UPB1012E1016RAB1016E1030SNE1012B1030 SLP795 P0001 T00060006 FZRANO